sensor_id;sensor_type;location;lat;lon;timestamp;P1;durP1;ratioP1;P2;durP2;ratioP2
64868;SDS011;51349;52.424;10.840;2024-03-08T00:00:49;17.27;;;9.57;;
64868;SDS011;51349;52.424;10.840;2024-03-08T00:05:51;16.37;;;9.80;;
64868;SDS011;51349;52.424;10.840;2024-03-08T00:10:52;16.73;;;9.70;;
64868;SDS011;51349;52.424;10.840;2024-03-08T00:15:52;17.20;;;9.93;;
64868;SDS011;51349;52.424;10.840;2024-03-08T00:20:53;18.30;;;9.97;;
64868;SDS011;51349;52.424;10.840;2024-03-08T00:25:53;16.83;;;10.20;;
64868;SDS011;51349;52.424;10.840;2024-03-08T00:30:55;15.73;;;9.80;;
64868;SDS011;51349;52.424;10.840;2024-03-08T00:35:56;15.40;;;9.70;;
64868;SDS011;51349;52.424;10.840;2024-03-08T00:40:57;17.83;;;9.80;;
64868;SDS011;51349;52.424;10.840;2024-03-08T00:45:57;15.33;;;8.93;;
64868;SDS011;51349;52.424;10.840;2024-03-08T00:50:58;14.67;;;8.60;;
64868;SDS011;51349;52.424;10.840;2024-03-08T00:55:59;16.60;;;9.47;;
64868;SDS011;51349;52.424;10.840;2024-03-08T01:00:59;15.80;;;9.23;;
64868;SDS011;51349;52.424;10.840;2024-03-08T01:06:00;16.87;;;9.73;;
64868;SDS011;51349;52.424;10.840;2024-03-08T01:11:01;16.53;;;10.03;;
64868;SDS011;51349;52.424;10.840;2024-03-08T01:16:02;17.63;;;9.67;;
64868;SDS011;51349;52.424;10.840;2024-03-08T01:21:03;16.77;;;8.80;;
64868;SDS011;51349;52.424;10.840;2024-03-08T01:26:04;16.97;;;9.33;;
64868;SDS011;51349;52.424;10.840;2024-03-08T01:31:05;19.67;;;10.27;;
64868;SDS011;51349;52.424;10.840;2024-03-08T01:36:06;18.97;;;9.87;;
64868;SDS011;51349;52.424;10.840;2024-03-08T01:41:06;15.27;;;9.23;;
64868;SDS011;51349;52.424;10.840;2024-03-08T01:46:07;16.57;;;9.13;;
64868;SDS011;51349;52.424;10.840;2024-03-08T01:51:09;17.77;;;9.63;;
64868;SDS011;51349;52.424;10.840;2024-03-08T01:56:12;19.67;;;9.97;;
64868;SDS011;51349;52.424;10.840;2024-03-08T02:01:13;15.60;;;9.30;;
64868;SDS011;51349;52.424;10.840;2024-03-08T02:06:15;16.83;;;9.70;;
64868;SDS011;51349;52.424;10.840;2024-03-08T02:11:16;16.77;;;9.07;;
64868;SDS011;51349;52.424;10.840;2024-03-08T02:16:23;16.50;;;9.27;;
64868;SDS011;51349;52.424;10.840;2024-03-08T02:21:24;19.07;;;10.33;;
64868;SDS011;51349;52.424;10.840;2024-03-08T02:26:25;18.37;;;9.47;;
64868;SDS011;51349;52.424;10.840;2024-03-08T02:31:27;15.63;;;9.13;;
64868;SDS011;51349;52.424;10.840;2024-03-08T02:36:27;16.43;;;9.43;;
64868;SDS011;51349;52.424;10.840;2024-03-08T02:41:28;20.23;;;11.10;;
64868;SDS011;51349;52.424;10.840;2024-03-08T02:46:28;16.57;;;10.57;;
64868;SDS011;51349;52.424;10.840;2024-03-08T02:51:30;18.63;;;9.73;;
64868;SDS011;51349;52.424;10.840;2024-03-08T02:56:31;18.13;;;9.53;;
64868;SDS011;51349;52.424;10.840;2024-03-08T03:01:34;22.43;;;11.77;;
64868;SDS011;51349;52.424;10.840;2024-03-08T03:06:36;16.63;;;10.27;;
64868;SDS011;51349;52.424;10.840;2024-03-08T03:11:37;19.70;;;10.73;;
64868;SDS011;51349;52.424;10.840;2024-03-08T03:16:38;18.07;;;10.60;;
64868;SDS011;51349;52.424;10.840;2024-03-08T03:21:39;20.43;;;11.03;;
64868;SDS011;51349;52.424;10.840;2024-03-08T03:26:39;18.23;;;10.13;;
64868;SDS011;51349;52.424;10.840;2024-03-08T03:31:40;20.87;;;11.50;;
64868;SDS011;51349;52.424;10.840;2024-03-08T03:36:41;22.27;;;11.87;;
64868;SDS011;51349;52.424;10.840;2024-03-08T03:41:43;22.67;;;11.27;;
64868;SDS011;51349;52.424;10.840;2024-03-08T03:46:46;23.47;;;10.93;;
64868;SDS011;51349;52.424;10.840;2024-03-08T03:51:46;23.70;;;11.07;;
64868;SDS011;51349;52.424;10.840;2024-03-08T03:56:47;20.83;;;11.67;;
64868;SDS011;51349;52.424;10.840;2024-03-08T04:01:55;24.67;;;11.90;;
64868;SDS011;51349;52.424;10.840;2024-03-08T04:06:56;19.43;;;10.73;;
64868;SDS011;51349;52.424;10.840;2024-03-08T04:11:58;20.37;;;11.73;;
64868;SDS011;51349;52.424;10.840;2024-03-08T04:16:58;21.53;;;11.63;;
64868;SDS011;51349;52.424;10.840;2024-03-08T04:21:59;23.13;;;11.17;;
64868;SDS011;51349;52.424;10.840;2024-03-08T04:27:01;19.83;;;11.43;;
64868;SDS011;51349;52.424;10.840;2024-03-08T04:32:04;22.27;;;10.90;;
64868;SDS011;51349;52.424;10.840;2024-03-08T04:37:06;22.70;;;11.53;;
64868;SDS011;51349;52.424;10.840;2024-03-08T04:42:10;25.63;;;11.50;;
64868;SDS011;51349;52.424;10.840;2024-03-08T04:47:11;21.80;;;11.53;;
64868;SDS011;51349;52.424;10.840;2024-03-08T04:52:12;25.97;;;12.30;;
64868;SDS011;51349;52.424;10.840;2024-03-08T04:57:12;22.33;;;11.37;;
64868;SDS011;51349;52.424;10.840;2024-03-08T05:02:13;22.43;;;11.63;;
64868;SDS011;51349;52.424;10.840;2024-03-08T05:07:14;23.97;;;12.37;;
64868;SDS011;51349;52.424;10.840;2024-03-08T05:12:15;24.00;;;12.17;;
64868;SDS011;51349;52.424;10.840;2024-03-08T05:17:15;20.80;;;11.97;;
64868;SDS011;51349;52.424;10.840;2024-03-08T05:22:19;24.60;;;13.47;;
64868;SDS011;51349;52.424;10.840;2024-03-08T05:27:20;23.13;;;12.50;;
64868;SDS011;51349;52.424;10.840;2024-03-08T05:32:21;21.23;;;12.07;;
64868;SDS011;51349;52.424;10.840;2024-03-08T05:37:21;22.70;;;12.07;;
64868;SDS011;51349;52.424;10.840;2024-03-08T05:42:22;25.37;;;12.30;;
64868;SDS011;51349;52.424;10.840;2024-03-08T05:47:22;25.83;;;12.37;;
64868;SDS011;51349;52.424;10.840;2024-03-08T05:52:23;25.53;;;12.50;;
64868;SDS011;51349;52.424;10.840;2024-03-08T05:57:24;21.50;;;11.90;;
64868;SDS011;51349;52.424;10.840;2024-03-08T06:02:24;20.27;;;10.93;;
64868;SDS011;51349;52.424;10.840;2024-03-08T06:07:25;21.03;;;12.20;;
64868;SDS011;51349;52.424;10.840;2024-03-08T06:12:26;21.20;;;12.17;;
64868;SDS011;51349;52.424;10.840;2024-03-08T06:17:29;21.53;;;11.93;;
64868;SDS011;51349;52.424;10.840;2024-03-08T06:22:29;23.47;;;11.53;;
64868;SDS011;51349;52.424;10.840;2024-03-08T06:27:31;21.43;;;11.27;;
64868;SDS011;51349;52.424;10.840;2024-03-08T06:32:33;21.47;;;11.90;;
64868;SDS011;51349;52.424;10.840;2024-03-08T06:37:35;23.07;;;12.57;;
64868;SDS011;51349;52.424;10.840;2024-03-08T06:42:36;25.30;;;12.30;;
64868;SDS011;51349;52.424;10.840;2024-03-08T06:47:37;25.20;;;13.10;;
64868;SDS011;51349;52.424;10.840;2024-03-08T06:52:37;30.40;;;13.87;;
64868;SDS011;51349;52.424;10.840;2024-03-08T06:57:39;29.47;;;13.80;;
64868;SDS011;51349;52.424;10.840;2024-03-08T07:02:40;29.13;;;15.90;;
64868;SDS011;51349;52.424;10.840;2024-03-08T07:07:42;25.87;;;14.40;;
64868;SDS011;51349;52.424;10.840;2024-03-08T07:12:43;30.43;;;16.00;;
64868;SDS011;51349;52.424;10.840;2024-03-08T07:17:43;32.67;;;15.93;;
64868;SDS011;51349;52.424;10.840;2024-03-08T07:22:47;32.80;;;16.10;;
64868;SDS011;51349;52.424;10.840;2024-03-08T07:27:48;36.33;;;17.23;;
64868;SDS011;51349;52.424;10.840;2024-03-08T07:32:50;33.73;;;16.93;;
64868;SDS011;51349;52.424;10.840;2024-03-08T07:37:50;31.17;;;17.53;;
64868;SDS011;51349;52.424;10.840;2024-03-08T07:42:51;39.03;;;18.37;;
64868;SDS011;51349;52.424;10.840;2024-03-08T07:47:52;38.23;;;19.17;;
64868;SDS011;51349;52.424;10.840;2024-03-08T07:52:53;42.20;;;20.20;;
64868;SDS011;51349;52.424;10.840;2024-03-08T07:57:54;38.47;;;19.77;;
64868;SDS011;51349;52.424;10.840;2024-03-08T08:02:55;41.87;;;20.63;;
64868;SDS011;51349;52.424;10.840;2024-03-08T08:07:56;37.23;;;20.23;;
64868;SDS011;51349;52.424;10.840;2024-03-08T08:12:56;40.23;;;22.00;;
64868;SDS011;51349;52.424;10.840;2024-03-08T08:17:57;40.40;;;21.30;;
64868;SDS011;51349;52.424;10.840;2024-03-08T08:22:58;46.80;;;23.50;;
64868;SDS011;51349;52.424;10.840;2024-03-08T08:27:59;51.80;;;24.17;;
64868;SDS011;51349;52.424;10.840;2024-03-08T08:32:59;42.30;;;20.87;;
64868;SDS011;51349;52.424;10.840;2024-03-08T08:38:00;47.87;;;24.17;;
64868;SDS011;51349;52.424;10.840;2024-03-08T08:43:03;44.43;;;23.83;;
64868;SDS011;51349;52.424;10.840;2024-03-08T08:48:04;40.53;;;22.50;;
64868;SDS011;51349;52.424;10.840;2024-03-08T08:53:06;39.00;;;21.83;;
64868;SDS011;51349;52.424;10.840;2024-03-08T08:58:07;39.10;;;22.07;;
64868;SDS011;51349;52.424;10.840;2024-03-08T09:03:07;30.47;;;16.17;;
64868;SDS011;51349;52.424;10.840;2024-03-08T09:08:08;37.23;;;21.50;;
64868;SDS011;51349;52.424;10.840;2024-03-08T09:13:09;35.80;;;20.07;;
64868;SDS011;51349;52.424;10.840;2024-03-08T09:18:11;33.23;;;20.23;;
64868;SDS011;51349;52.424;10.840;2024-03-08T09:23:12;33.93;;;19.53;;
64868;SDS011;51349;52.424;10.840;2024-03-08T09:28:13;32.40;;;20.27;;
64868;SDS011;51349;52.424;10.840;2024-03-08T09:33:14;29.13;;;18.17;;
64868;SDS011;51349;52.424;10.840;2024-03-08T09:38:19;35.70;;;21.43;;
64868;SDS011;51349;52.424;10.840;2024-03-08T09:43:20;31.17;;;19.87;;
64868;SDS011;51349;52.424;10.840;2024-03-08T09:48:22;30.13;;;19.50;;
64868;SDS011;51349;52.424;10.840;2024-03-08T09:53:23;31.30;;;20.23;;
64868;SDS011;51349;52.424;10.840;2024-03-08T09:58:24;30.27;;;20.23;;
64868;SDS011;51349;52.424;10.840;2024-03-08T10:03:33;32.33;;;20.97;;
64868;SDS011;51349;52.424;10.840;2024-03-08T10:08:35;30.00;;;19.27;;
64868;SDS011;51349;52.424;10.840;2024-03-08T10:13:36;28.87;;;20.57;;
64868;SDS011;51349;52.424;10.840;2024-03-08T10:18:37;28.07;;;19.73;;
64868;SDS011;51349;52.424;10.840;2024-03-08T10:23:38;28.70;;;19.97;;
64868;SDS011;51349;52.424;10.840;2024-03-08T10:28:40;25.77;;;18.40;;
64868;SDS011;51349;52.424;10.840;2024-03-08T10:33:51;26.02;;;19.27;;
64868;SDS011;51349;52.424;10.840;2024-03-08T10:38:52;26.90;;;19.25;;
64868;SDS011;51349;52.424;10.840;2024-03-08T10:44:16;24.88;;;18.00;;
64868;SDS011;51349;52.424;10.840;2024-03-08T10:49:27;27.90;;;19.45;;
64868;SDS011;51349;52.424;10.840;2024-03-08T10:54:36;25.02;;;18.27;;
64868;SDS011;51349;52.424;10.840;2024-03-08T10:59:40;27.27;;;19.02;;
64868;SDS011;51349;52.424;10.840;2024-03-08T11:04:46;24.60;;;17.38;;
64868;SDS011;51349;52.424;10.840;2024-03-08T11:09:49;23.88;;;17.08;;
64868;SDS011;51349;52.424;10.840;2024-03-08T11:14:50;22.17;;;16.88;;
64868;SDS011;51349;52.424;10.840;2024-03-08T11:19:55;24.50;;;18.13;;
64868;SDS011;51349;52.424;10.840;2024-03-08T11:25:03;24.33;;;18.52;;
64868;SDS011;51349;52.424;10.840;2024-03-08T11:30:09;21.08;;;16.17;;
64868;SDS011;51349;52.424;10.840;2024-03-08T11:35:20;23.70;;;18.30;;
64868;SDS011;51349;52.424;10.840;2024-03-08T11:40:25;20.98;;;16.27;;
64868;SDS011;51349;52.424;10.840;2024-03-08T11:45:26;20.42;;;14.70;;
64868;SDS011;51349;52.424;10.840;2024-03-08T11:50:27;21.45;;;16.67;;
64868;SDS011;51349;52.424;10.840;2024-03-08T11:55:28;19.77;;;15.35;;
64868;SDS011;51349;52.424;10.840;2024-03-08T12:00:29;18.80;;;15.40;;
64868;SDS011;51349;52.424;10.840;2024-03-08T12:05:35;18.65;;;15.02;;
64868;SDS011;51349;52.424;10.840;2024-03-08T12:10:36;18.77;;;15.93;;
64868;SDS011;51349;52.424;10.840;2024-03-08T12:15:37;20.00;;;15.75;;
64868;SDS011;51349;52.424;10.840;2024-03-08T12:20:39;21.67;;;16.58;;
64868;SDS011;51349;52.424;10.840;2024-03-08T12:25:43;19.90;;;16.23;;
64868;SDS011;51349;52.424;10.840;2024-03-08T12:35:56;22.40;;;17.13;;
64868;SDS011;51349;52.424;10.840;2024-03-08T12:40:58;20.65;;;15.57;;
64868;SDS011;51349;52.424;10.840;2024-03-08T12:45:59;19.50;;;15.77;;
64868;SDS011;51349;52.424;10.840;2024-03-08T12:51:00;21.52;;;15.10;;
64868;SDS011;51349;52.424;10.840;2024-03-08T12:56:01;19.25;;;14.77;;
64868;SDS011;51349;52.424;10.840;2024-03-08T13:01:03;18.05;;;14.55;;
64868;SDS011;51349;52.424;10.840;2024-03-08T13:06:12;19.65;;;14.55;;
64868;SDS011;51349;52.424;10.840;2024-03-08T13:11:12;18.20;;;13.73;;
64868;SDS011;51349;52.424;10.840;2024-03-08T13:16:14;15.77;;;12.65;;
64868;SDS011;51349;52.424;10.840;2024-03-08T13:21:19;15.65;;;13.50;;
64868;SDS011;51349;52.424;10.840;2024-03-08T13:26:23;16.42;;;14.50;;
64868;SDS011;51349;52.424;10.840;2024-03-08T13:31:25;14.68;;;12.80;;
64868;SDS011;51349;52.424;10.840;2024-03-08T13:36:26;14.40;;;12.35;;
64868;SDS011;51349;52.424;10.840;2024-03-08T13:41:39;15.57;;;13.00;;
64868;SDS011;51349;52.424;10.840;2024-03-08T13:46:39;13.77;;;11.85;;
64868;SDS011;51349;52.424;10.840;2024-03-08T13:51:41;14.27;;;12.20;;
64868;SDS011;51349;52.424;10.840;2024-03-08T13:56:42;15.05;;;11.85;;
64868;SDS011;51349;52.424;10.840;2024-03-08T14:01:46;14.27;;;12.10;;
64868;SDS011;51349;52.424;10.840;2024-03-08T14:06:49;15.32;;;11.40;;
64868;SDS011;51349;52.424;10.840;2024-03-08T14:11:51;12.82;;;10.98;;
64868;SDS011;51349;52.424;10.840;2024-03-08T14:16:54;12.75;;;11.20;;
64868;SDS011;51349;52.424;10.840;2024-03-08T14:21:58;14.23;;;10.32;;
64868;SDS011;51349;52.424;10.840;2024-03-08T14:26:59;11.80;;;10.43;;
64868;SDS011;51349;52.424;10.840;2024-03-08T14:31:59;13.32;;;11.40;;
64868;SDS011;51349;52.424;10.840;2024-03-08T14:37:01;12.90;;;10.73;;
64868;SDS011;51349;52.424;10.840;2024-03-08T14:42:05;15.93;;;11.70;;
64868;SDS011;51349;52.424;10.840;2024-03-08T14:47:08;13.77;;;11.50;;
64868;SDS011;51349;52.424;10.840;2024-03-08T14:52:10;16.50;;;11.80;;
64868;SDS011;51349;52.424;10.840;2024-03-08T14:57:27;16.60;;;13.18;;
64868;SDS011;51349;52.424;10.840;2024-03-08T15:02:28;19.52;;;15.02;;
64868;SDS011;51349;52.424;10.840;2024-03-08T15:07:29;18.23;;;14.52;;
64868;SDS011;51349;52.424;10.840;2024-03-08T15:12:30;19.42;;;14.95;;
64868;SDS011;51349;52.424;10.840;2024-03-08T15:17:31;21.85;;;15.23;;
64868;SDS011;51349;52.424;10.840;2024-03-08T15:22:33;16.58;;;14.55;;
64868;SDS011;51349;52.424;10.840;2024-03-08T15:27:33;18.23;;;13.52;;
64868;SDS011;51349;52.424;10.840;2024-03-08T15:32:39;17.58;;;13.07;;
64868;SDS011;51349;52.424;10.840;2024-03-08T15:37:44;20.98;;;14.20;;
64868;SDS011;51349;52.424;10.840;2024-03-08T15:47:56;18.95;;;14.70;;
64868;SDS011;51349;52.424;10.840;2024-03-08T15:52:56;20.92;;;14.80;;
64868;SDS011;51349;52.424;10.840;2024-03-08T15:57:59;24.40;;;14.68;;
64868;SDS011;51349;52.424;10.840;2024-03-08T16:03:00;18.40;;;13.25;;
64868;SDS011;51349;52.424;10.840;2024-03-08T16:08:11;16.67;;;12.57;;
64868;SDS011;51349;52.424;10.840;2024-03-08T16:13:15;17.33;;;13.25;;
64868;SDS011;51349;52.424;10.840;2024-03-08T16:18:20;17.42;;;12.10;;
64868;SDS011;51349;52.424;10.840;2024-03-08T16:23:23;14.48;;;11.20;;
64868;SDS011;51349;52.424;10.840;2024-03-08T16:28:24;16.00;;;12.02;;
64868;SDS011;51349;52.424;10.840;2024-03-08T16:33:28;15.23;;;10.73;;
64868;SDS011;51349;52.424;10.840;2024-03-08T16:38:28;14.77;;;11.03;;
64868;SDS011;51349;52.424;10.840;2024-03-08T16:43:29;17.80;;;12.00;;
64868;SDS011;51349;52.424;10.840;2024-03-08T16:48:30;15.00;;;11.68;;
64868;SDS011;51349;52.424;10.840;2024-03-08T16:53:31;17.70;;;11.10;;
64868;SDS011;51349;52.424;10.840;2024-03-08T16:58:34;15.03;;;11.10;;
64868;SDS011;51349;52.424;10.840;2024-03-08T17:03:34;17.10;;;11.63;;
64868;SDS011;51349;52.424;10.840;2024-03-08T17:08:36;18.20;;;11.70;;
64868;SDS011;51349;52.424;10.840;2024-03-08T17:13:37;17.60;;;11.63;;
64868;SDS011;51349;52.424;10.840;2024-03-08T17:18:38;17.93;;;11.93;;
64868;SDS011;51349;52.424;10.840;2024-03-08T17:23:39;16.13;;;11.33;;
64868;SDS011;51349;52.424;10.840;2024-03-08T17:28:40;21.87;;;12.20;;
64868;SDS011;51349;52.424;10.840;2024-03-08T17:33:43;17.37;;;11.50;;
64868;SDS011;51349;52.424;10.840;2024-03-08T17:38:45;16.87;;;11.53;;
64868;SDS011;51349;52.424;10.840;2024-03-08T17:43:47;18.13;;;11.50;;
64868;SDS011;51349;52.424;10.840;2024-03-08T17:48:48;16.37;;;11.17;;
64868;SDS011;51349;52.424;10.840;2024-03-08T17:53:48;16.23;;;10.90;;
64868;SDS011;51349;52.424;10.840;2024-03-08T17:58:51;17.37;;;11.47;;
64868;SDS011;51349;52.424;10.840;2024-03-08T18:03:52;20.07;;;12.43;;
64868;SDS011;51349;52.424;10.840;2024-03-08T18:08:53;19.03;;;12.83;;
64868;SDS011;51349;52.424;10.840;2024-03-08T18:13:54;18.63;;;11.97;;
64868;SDS011;51349;52.424;10.840;2024-03-08T18:18:56;21.77;;;13.70;;
64868;SDS011;51349;52.424;10.840;2024-03-08T18:23:56;18.90;;;13.10;;
64868;SDS011;51349;52.424;10.840;2024-03-08T18:28:57;30.47;;;17.70;;
64868;SDS011;51349;52.424;10.840;2024-03-08T18:33:57;18.47;;;11.83;;
64868;SDS011;51349;52.424;10.840;2024-03-08T18:39:01;15.07;;;10.73;;
64868;SDS011;51349;52.424;10.840;2024-03-08T18:44:04;17.30;;;11.53;;
64868;SDS011;51349;52.424;10.840;2024-03-08T18:49:05;18.77;;;10.70;;
64868;SDS011;51349;52.424;10.840;2024-03-08T18:54:05;15.43;;;10.83;;
64868;SDS011;51349;52.424;10.840;2024-03-08T18:59:06;17.30;;;11.03;;
64868;SDS011;51349;52.424;10.840;2024-03-08T19:04:09;19.87;;;11.40;;
64868;SDS011;51349;52.424;10.840;2024-03-08T19:09:10;14.87;;;9.70;;
64868;SDS011;51349;52.424;10.840;2024-03-08T19:14:14;18.67;;;10.73;;
64868;SDS011;51349;52.424;10.840;2024-03-08T19:19:18;19.03;;;11.07;;
64868;SDS011;51349;52.424;10.840;2024-03-08T19:24:21;15.63;;;10.20;;
64868;SDS011;51349;52.424;10.840;2024-03-08T19:29:22;18.27;;;11.43;;
64868;SDS011;51349;52.424;10.840;2024-03-08T19:34:25;14.70;;;9.90;;
64868;SDS011;51349;52.424;10.840;2024-03-08T19:39:26;17.73;;;11.20;;
64868;SDS011;51349;52.424;10.840;2024-03-08T19:44:27;16.90;;;10.43;;
64868;SDS011;51349;52.424;10.840;2024-03-08T19:49:28;13.90;;;10.10;;
64868;SDS011;51349;52.424;10.840;2024-03-08T19:54:31;15.17;;;10.17;;
64868;SDS011;51349;52.424;10.840;2024-03-08T19:59:33;13.43;;;9.50;;
64868;SDS011;51349;52.424;10.840;2024-03-08T20:04:41;17.00;;;10.33;;
64868;SDS011;51349;52.424;10.840;2024-03-08T20:09:42;17.80;;;10.07;;
64868;SDS011;51349;52.424;10.840;2024-03-08T20:14:42;16.90;;;10.03;;
64868;SDS011;51349;52.424;10.840;2024-03-08T20:19:43;14.53;;;9.73;;
64868;SDS011;51349;52.424;10.840;2024-03-08T20:24:44;17.90;;;10.40;;
64868;SDS011;51349;52.424;10.840;2024-03-08T20:29:44;15.97;;;10.10;;
64868;SDS011;51349;52.424;10.840;2024-03-08T20:34:46;14.53;;;9.50;;
64868;SDS011;51349;52.424;10.840;2024-03-08T20:39:47;15.10;;;9.87;;
64868;SDS011;51349;52.424;10.840;2024-03-08T20:44:48;17.27;;;10.37;;
64868;SDS011;51349;52.424;10.840;2024-03-08T20:49:49;16.70;;;10.40;;
64868;SDS011;51349;52.424;10.840;2024-03-08T20:54:51;13.67;;;9.50;;
64868;SDS011;51349;52.424;10.840;2024-03-08T20:59:52;16.43;;;9.77;;
64868;SDS011;51349;52.424;10.840;2024-03-08T21:04:53;17.80;;;11.20;;
64868;SDS011;51349;52.424;10.840;2024-03-08T21:09:54;29.73;;;16.60;;
64868;SDS011;51349;52.424;10.840;2024-03-08T21:14:55;25.20;;;12.93;;
64868;SDS011;51349;52.424;10.840;2024-03-08T21:19:55;18.13;;;11.10;;
64868;SDS011;51349;52.424;10.840;2024-03-08T21:24:56;16.97;;;10.47;;
64868;SDS011;51349;52.424;10.840;2024-03-08T21:29:57;19.03;;;10.07;;
64868;SDS011;51349;52.424;10.840;2024-03-08T21:34:57;17.80;;;10.40;;
64868;SDS011;51349;52.424;10.840;2024-03-08T21:39:58;17.23;;;11.07;;
64868;SDS011;51349;52.424;10.840;2024-03-08T21:45:01;19.87;;;11.17;;
64868;SDS011;51349;52.424;10.840;2024-03-08T21:50:04;25.40;;;13.23;;
64868;SDS011;51349;52.424;10.840;2024-03-08T21:55:05;19.23;;;12.20;;
64868;SDS011;51349;52.424;10.840;2024-03-08T22:00:06;21.60;;;12.37;;
64868;SDS011;51349;52.424;10.840;2024-03-08T22:05:11;19.13;;;11.03;;
64868;SDS011;51349;52.424;10.840;2024-03-08T22:10:16;21.97;;;12.80;;
64868;SDS011;51349;52.424;10.840;2024-03-08T22:15:25;20.73;;;12.50;;
64868;SDS011;51349;52.424;10.840;2024-03-08T22:20:27;30.83;;;16.53;;
64868;SDS011;51349;52.424;10.840;2024-03-08T22:25:31;23.17;;;13.67;;
64868;SDS011;51349;52.424;10.840;2024-03-08T22:30:31;24.33;;;12.83;;
64868;SDS011;51349;52.424;10.840;2024-03-08T22:35:32;23.50;;;13.30;;
64868;SDS011;51349;52.424;10.840;2024-03-08T22:40:33;24.67;;;13.67;;
64868;SDS011;51349;52.424;10.840;2024-03-08T22:45:34;25.57;;;14.07;;
64868;SDS011;51349;52.424;10.840;2024-03-08T22:50:34;23.53;;;12.90;;
64868;SDS011;51349;52.424;10.840;2024-03-08T22:55:36;24.77;;;14.47;;
64868;SDS011;51349;52.424;10.840;2024-03-08T23:00:37;27.73;;;15.73;;
64868;SDS011;51349;52.424;10.840;2024-03-08T23:05:37;28.37;;;16.40;;
64868;SDS011;51349;52.424;10.840;2024-03-08T23:10:40;29.20;;;14.57;;
64868;SDS011;51349;52.424;10.840;2024-03-08T23:15:42;25.53;;;14.93;;
64868;SDS011;51349;52.424;10.840;2024-03-08T23:20:43;22.83;;;13.73;;
64868;SDS011;51349;52.424;10.840;2024-03-08T23:25:44;24.33;;;13.87;;
64868;SDS011;51349;52.424;10.840;2024-03-08T23:30:44;25.53;;;14.43;;
64868;SDS011;51349;52.424;10.840;2024-03-08T23:35:45;25.77;;;13.83;;
64868;SDS011;51349;52.424;10.840;2024-03-08T23:40:46;23.07;;;12.93;;
64868;SDS011;51349;52.424;10.840;2024-03-08T23:45:47;21.67;;;13.57;;
64868;SDS011;51349;52.424;10.840;2024-03-08T23:50:48;24.63;;;14.30;;
64868;SDS011;51349;52.424;10.840;2024-03-08T23:55:49;23.07;;;13.80;;
